createdAt,value
2022-11-06T00:01:31.129Z,35.67
2022-11-06T00:04:02.351Z,31.08
2022-11-06T00:06:50.147Z,32.47
2022-11-06T00:09:23.076Z,32.38
2022-11-06T00:11:54.630Z,33.77
2022-11-06T00:17:10.917Z,30.42
2022-11-06T00:20:08.390Z,31.67
2022-11-06T00:22:40.265Z,32.78
2022-11-06T00:25:12.122Z,32.33
2022-11-06T00:27:45.253Z,33.70
2022-11-06T00:30:16.190Z,34.38
2022-11-06T00:32:50.350Z,33.47
2022-11-06T00:35:21.358Z,31.88
2022-11-06T00:37:52.266Z,32.28
2022-11-06T00:40:23.290Z,33.47
2022-11-06T00:42:57.269Z,31.85
2022-11-06T00:45:28.787Z,33.67
2022-11-06T00:47:59.691Z,36.22
2022-11-06T00:50:30.806Z,35.70
2022-11-06T00:55:45.792Z,32.05
2022-11-06T00:58:16.609Z,33.58
2022-11-06T01:00:47.397Z,31.45
2022-11-06T01:03:38.104Z,34.33
2022-11-06T01:06:31.025Z,33.95
2022-11-06T01:09:02.677Z,32.38
2022-11-06T01:12:11.030Z,32.53
2022-11-06T01:14:51.358Z,33.65
2022-11-06T01:17:22.527Z,32.22
2022-11-06T01:19:53.567Z,39.45
2022-11-06T01:22:24.426Z,31.80
2022-11-06T01:24:55.486Z,33.75
2022-11-06T01:27:27.465Z,31.40
2022-11-06T01:29:58.584Z,32.78
2022-11-06T01:32:29.597Z,34.60
2022-11-06T01:37:45.266Z,34.10
2022-11-06T01:40:16.364Z,33.03
2022-11-06T01:42:48.103Z,35.28
2022-11-06T01:45:50.713Z,32.95
2022-11-06T01:48:26.291Z,31.50
2022-11-06T01:51:00.925Z,31.48
2022-11-06T01:53:32.464Z,32.90
2022-11-06T01:56:06.471Z,34.40
2022-11-06T01:58:39.148Z,33.60
2022-11-06T02:01:14.858Z,32.30
2022-11-06T02:03:56.745Z,33.88
2022-11-06T02:06:28.055Z,32.88
2022-11-06T02:08:58.905Z,35.35
2022-11-06T02:11:30.314Z,32.90
2022-11-06T02:14:19.026Z,31.25
2022-11-06T02:17:15.748Z,30.88
2022-11-06T02:19:52.098Z,33.78
2022-11-06T02:22:47.060Z,33.63
2022-11-06T02:25:35.866Z,35.13
2022-11-06T02:28:19.911Z,33.20
2022-11-06T02:33:36.385Z,31.10
2022-11-06T02:36:14.062Z,32.67
2022-11-06T02:38:59.935Z,31.40
2022-11-06T02:41:37.135Z,33.67
2022-11-06T02:44:11.691Z,32.95
2022-11-06T02:46:54.875Z,28.95
2022-11-06T02:49:31.671Z,34.22
2022-11-06T02:52:08.764Z,32.72
2022-11-06T02:54:44.992Z,30.63
2022-11-06T02:57:18.634Z,30.17
2022-11-06T03:00:13.534Z,31.33
2022-11-06T03:03:02.854Z,31.42
2022-11-06T03:05:48.594Z,34.92
2022-11-06T03:08:27.525Z,35.78
2022-11-06T03:11:13.828Z,31.98
2022-11-06T03:14:15.052Z,33.85
2022-11-06T03:17:24.003Z,31.35
2022-11-06T03:20:01.615Z,32.83
2022-11-06T03:22:56.895Z,35.45
2022-11-06T03:26:01.184Z,31.15
2022-11-06T03:28:38.080Z,34.53
2022-11-06T03:31:15.044Z,32.97
2022-11-06T03:33:55.477Z,32.05
2022-11-06T03:36:49.491Z,32.33
2022-11-06T03:39:27.987Z,33.58
2022-11-06T03:42:13.985Z,30.52
2022-11-06T03:44:53.157Z,32.75
2022-11-06T03:47:27.632Z,33.53
2022-11-06T03:50:10.133Z,29.30
2022-11-06T03:53:01.824Z,31.83
2022-11-06T03:55:41.665Z,32.45
2022-11-06T03:58:43.315Z,32.15
2022-11-06T04:01:18.335Z,30.90
2022-11-06T04:03:55.646Z,32.72
2022-11-06T04:06:35.859Z,30.88
2022-11-06T04:09:27.621Z,28.77
2022-11-06T04:12:19.786Z,29.33
2022-11-06T04:14:54.940Z,30.17
2022-11-06T04:17:31.494Z,31.38
2022-11-06T04:20:07.311Z,30.00
2022-11-06T04:22:46.852Z,29.25
2022-11-06T04:26:02.025Z,28.92
2022-11-06T04:28:45.183Z,31.55
2022-11-06T04:31:25.287Z,31.60
2022-11-06T04:34:14.285Z,29.92
2022-11-06T04:37:12.428Z,29.55
2022-11-06T04:40:30.035Z,29.35
2022-11-06T04:43:16.566Z,28.92
2022-11-06T04:45:53.519Z,30.10
2022-11-06T04:48:26.088Z,28.02
2022-11-06T04:51:01.747Z,30.17
2022-11-06T04:53:34.465Z,32.20
2022-11-06T04:56:23.093Z,31.52
2022-11-06T04:59:02.956Z,31.35
2022-11-06T05:01:34.448Z,28.92
2022-11-06T05:04:05.448Z,30.00
2022-11-06T05:06:56.188Z,33.35
2022-11-06T05:09:27.288Z,29.92
2022-11-06T05:11:58.187Z,27.73
2022-11-06T05:14:29.046Z,31.70
2022-11-06T05:17:00.190Z,28.83
2022-11-06T05:19:31.415Z,26.92
2022-11-06T05:22:20.774Z,30.48
2022-11-06T05:24:52.048Z,29.55
2022-11-06T05:27:23.892Z,29.75
2022-11-06T05:29:55.385Z,31.60
2022-11-06T05:32:47.667Z,30.00
2022-11-06T05:35:19.772Z,28.17
2022-11-06T05:37:50.732Z,28.75
2022-11-06T05:40:21.998Z,28.02
2022-11-06T05:42:53.149Z,27.50
2022-11-06T05:45:24.097Z,32.17
2022-11-06T05:47:55.741Z,27.63
2022-11-06T05:50:26.923Z,29.48
2022-11-06T05:52:58.062Z,26.30
2022-11-06T05:55:29.074Z,29.92
2022-11-06T05:58:00.592Z,26.20
2022-11-06T06:00:34.746Z,30.23
2022-11-06T06:03:09.293Z,26.05
2022-11-06T06:05:40.666Z,28.48
2022-11-06T06:08:11.869Z,27.95
2022-11-06T06:10:49.508Z,30.33
2022-11-06T06:13:20.419Z,28.58
2022-11-06T06:16:14.266Z,26.85
2022-11-06T06:19:08.383Z,29.10
2022-11-06T06:21:40.051Z,25.83
2022-11-06T06:24:11.491Z,29.58
2022-11-06T06:26:43.101Z,26.25
2022-11-06T06:29:14.543Z,29.85
2022-11-06T06:31:46.021Z,25.27
2022-11-06T06:34:17.739Z,28.42
2022-11-06T06:36:53.013Z,28.08
2022-11-06T06:39:24.511Z,29.42
2022-11-06T06:41:56.433Z,30.00
2022-11-06T06:44:28.154Z,26.23
2022-11-06T06:46:59.533Z,26.30
2022-11-06T06:49:30.830Z,27.42
2022-11-06T06:52:02.392Z,27.65
2022-11-06T06:54:33.996Z,26.63
2022-11-06T06:57:05.699Z,29.00
2022-11-06T06:59:37.127Z,25.92
2022-11-06T07:02:09.271Z,27.08
2022-11-06T07:04:41.402Z,26.60
2022-11-06T07:07:13.075Z,25.65
2022-11-06T07:09:44.528Z,26.23
2022-11-06T07:12:15.837Z,24.15
2022-11-06T07:14:47.141Z,25.85
2022-11-06T07:17:18.421Z,25.77
2022-11-06T07:19:49.582Z,24.35
2022-11-06T07:22:29.574Z,24.35
2022-11-06T07:25:27.435Z,24.65
2022-11-06T07:28:02.922Z,23.35
2022-11-06T07:30:35.616Z,25.60
2022-11-06T07:33:07.852Z,26.40
2022-11-06T07:35:39.127Z,26.00
2022-11-06T07:38:10.468Z,27.25
2022-11-06T07:40:42.077Z,22.40
2022-11-06T07:43:15.804Z,26.02
2022-11-06T07:45:47.064Z,25.15
2022-11-06T07:48:18.291Z,24.90
2022-11-06T07:50:50.856Z,23.88
2022-11-06T07:53:23.136Z,21.50
2022-11-06T07:55:56.204Z,23.80
2022-11-06T07:58:27.924Z,22.20
2022-11-06T08:01:00.862Z,23.55
2022-11-06T08:03:32.619Z,22.65
2022-11-06T08:06:13.513Z,26.27
2022-11-06T08:08:44.812Z,23.10
2022-11-06T08:11:16.876Z,24.50
2022-11-06T08:13:48.345Z,26.67
2022-11-06T08:16:20.136Z,24.80
2022-11-06T08:18:51.548Z,22.98
2022-11-06T08:21:23.047Z,24.00
2022-11-06T08:23:54.407Z,21.85
2022-11-06T08:26:25.722Z,20.95
2022-11-06T08:29:18.072Z,24.20
2022-11-06T08:31:49.554Z,21.58
2022-11-06T08:34:41.420Z,21.25
2022-11-06T08:37:32.979Z,26.20
2022-11-06T08:40:04.233Z,22.67
2022-11-06T08:43:00.778Z,24.65
2022-11-06T08:46:12.959Z,21.05
2022-11-06T08:48:44.246Z,23.95
2022-11-06T08:51:17.208Z,23.58
2022-11-06T08:53:48.724Z,20.75
2022-11-06T08:56:20.933Z,21.00
2022-11-06T08:58:55.542Z,22.83
2022-11-06T09:04:11.042Z,22.10
2022-11-06T09:06:42.492Z,22.13
2022-11-06T09:09:13.812Z,23.15
2022-11-06T09:11:46.069Z,22.85
2022-11-06T09:14:17.493Z,21.30
2022-11-06T09:16:48.934Z,21.75
2022-11-06T09:19:20.799Z,21.00
2022-11-06T09:21:54.705Z,23.33
2022-11-06T09:24:49.703Z,19.38
2022-11-06T09:27:17.728Z,22.48
2022-11-06T09:29:50.400Z,22.83
2022-11-06T09:32:21.710Z,22.20
2022-11-06T09:35:12.556Z,21.25
2022-11-06T09:37:44.079Z,20.55
2022-11-06T09:41:03.317Z,22.17
2022-11-06T09:44:19.713Z,21.08
2022-11-06T09:46:52.364Z,23.77
2022-11-06T09:49:43.308Z,21.30
2022-11-06T09:52:17.299Z,21.25
2022-11-06T09:54:59.202Z,21.33
2022-11-06T09:57:49.032Z,22.27
2022-11-06T10:00:20.947Z,20.15
2022-11-06T10:02:59.677Z,19.90
2022-11-06T10:05:39.554Z,21.10
2022-11-06T10:08:31.397Z,20.80
2022-11-06T10:11:17.961Z,20.00
2022-11-06T10:14:01.637Z,18.88
2022-11-06T10:16:50.987Z,22.77
2022-11-06T10:19:31.327Z,20.83
2022-11-06T10:22:19.323Z,20.42
2022-11-06T10:25:21.332Z,20.30
2022-11-06T10:28:26.097Z,19.38
2022-11-06T10:31:15.768Z,18.40
2022-11-06T10:33:47.263Z,21.92
2022-11-06T10:36:31.243Z,21.63
2022-11-06T10:39:03.947Z,24.58
2022-11-06T10:41:39.635Z,19.65
2022-11-06T10:44:40.043Z,21.80
2022-11-06T10:47:25.847Z,19.23
2022-11-06T10:50:00.663Z,20.80
2022-11-06T10:52:41.244Z,20.15
2022-11-06T10:55:49.123Z,19.13
2022-11-06T10:58:29.255Z,18.65
2022-11-06T11:01:04.897Z,22.13
2022-11-06T11:03:44.501Z,20.92
2022-11-06T11:06:16.092Z,20.23
2022-11-06T11:08:50.195Z,19.73
2022-11-06T11:11:30.876Z,19.63
2022-11-06T11:14:04.773Z,20.27
2022-11-06T11:16:41.161Z,18.65
2022-11-06T11:19:32.413Z,18.02
2022-11-06T11:22:31.935Z,18.35
2022-11-06T11:25:05.745Z,18.15
2022-11-06T11:28:07.222Z,20.10
2022-11-06T11:30:38.937Z,20.05
2022-11-06T11:33:15.778Z,18.73
2022-11-06T11:35:53.482Z,16.58
2022-11-06T11:38:25.934Z,20.10
2022-11-06T11:41:14.745Z,18.48
2022-11-06T11:44:15.088Z,18.58
2022-11-06T11:46:54.017Z,18.38
2022-11-06T11:49:31.239Z,21.23
2022-11-06T11:52:06.069Z,20.23
2022-11-06T11:54:38.707Z,18.13
2022-11-06T11:57:19.650Z,19.20
2022-11-06T12:00:24.252Z,17.95
2022-11-06T12:05:41.363Z,18.60
2022-11-06T12:08:27.965Z,21.30
2022-11-06T12:11:10.122Z,18.40
2022-11-06T12:13:41.430Z,17.20
2022-11-06T12:16:20.382Z,18.25
2022-11-06T12:18:58.730Z,19.15
2022-11-06T12:21:37.099Z,17.40
2022-11-06T12:24:27.445Z,19.67
2022-11-06T12:27:05.910Z,17.20
2022-11-06T12:29:55.347Z,18.95
2022-11-06T12:32:48.510Z,18.15
2022-11-06T12:35:38.745Z,19.00
2022-11-06T12:38:26.872Z,19.23
2022-11-06T12:41:51.082Z,20.10
2022-11-06T12:49:43.640Z,17.55
2022-11-06T12:52:40.974Z,17.08
2022-11-06T12:55:21.693Z,17.90
2022-11-06T12:58:56.366Z,16.83
2022-11-06T13:01:59.137Z,18.50
2022-11-06T13:04:51.656Z,18.90
2022-11-06T13:07:32.973Z,17.23
2022-11-06T13:10:15.364Z,16.75
2022-11-06T13:13:07.604Z,17.48
2022-11-06T13:15:54.874Z,17.67
2022-11-06T13:18:41.402Z,18.73
2022-11-06T13:21:50.589Z,18.67
2022-11-06T13:24:47.152Z,15.57
2022-11-06T13:27:27.320Z,16.80
2022-11-06T13:30:15.046Z,17.15
2022-11-06T13:33:12.707Z,18.42
2022-11-06T13:35:46.544Z,17.33
2022-11-06T13:39:07.315Z,17.20
2022-11-06T13:41:38.749Z,18.67
2022-11-06T13:44:17.494Z,18.48
2022-11-06T13:47:12.886Z,18.45
2022-11-06T13:50:10.574Z,18.38
2022-11-06T13:52:56.562Z,16.83
2022-11-06T13:55:31.085Z,16.75
2022-11-06T13:58:26.535Z,18.33
2022-11-06T14:01:30.198Z,19.58
2022-11-06T14:04:23.520Z,18.20
2022-11-06T14:06:57.531Z,18.90
2022-11-06T14:09:32.615Z,17.70
2022-11-06T14:12:15.457Z,18.25
2022-11-06T14:14:46.650Z,17.58
2022-11-06T14:17:20.849Z,16.63
2022-11-06T14:19:57.824Z,16.38
2022-11-06T14:22:35.467Z,16.70
2022-11-06T14:25:30.894Z,16.17
2022-11-06T14:28:04.716Z,17.60
2022-11-06T14:31:10.605Z,19.00
2022-11-06T14:33:46.130Z,15.90
2022-11-06T14:36:35.969Z,17.70
2022-11-06T14:39:15.264Z,16.30
2022-11-06T14:41:57.821Z,16.65
2022-11-06T14:45:02.277Z,16.20
2022-11-06T14:47:42.885Z,16.33
2022-11-06T14:50:30.603Z,19.17
2022-11-06T14:53:09.037Z,17.02
2022-11-06T14:56:13.113Z,17.45
2022-11-06T14:58:52.193Z,17.15
2022-11-06T15:01:35.550Z,18.35
2022-11-06T15:04:40.058Z,19.50
2022-11-06T15:07:58.244Z,17.52
2022-11-06T15:10:46.364Z,16.67
2022-11-06T15:13:20.244Z,17.48
2022-11-06T15:18:27.111Z,17.58
2022-11-06T15:21:09.517Z,17.60
2022-11-06T15:24:08.015Z,15.93
2022-11-06T15:27:13.811Z,16.60
2022-11-06T15:29:47.285Z,16.10
2022-11-06T15:32:21.233Z,16.08
2022-11-06T15:35:18.732Z,16.95
2022-11-06T15:37:58.208Z,16.80
2022-11-06T15:40:35.066Z,16.70
2022-11-06T15:43:19.652Z,17.15
2022-11-06T15:46:08.577Z,18.02
2022-11-06T15:48:40.274Z,17.10
2022-11-06T15:51:29.673Z,17.02
2022-11-06T15:54:00.907Z,17.58
2022-11-06T15:56:37.754Z,16.42
2022-11-06T15:59:22.703Z,17.63
2022-11-06T16:01:53.902Z,17.10
2022-11-06T16:04:27.481Z,15.68
2022-11-06T16:07:21.253Z,16.60
2022-11-06T16:09:53.320Z,15.57
2022-11-06T16:12:24.416Z,15.68
2022-11-06T16:14:55.535Z,17.85
2022-11-06T16:17:28.842Z,17.75
2022-11-06T16:20:03.604Z,17.08
2022-11-06T16:22:35.879Z,15.65
2022-11-06T16:25:09.084Z,15.88
2022-11-06T16:27:43.279Z,18.05
2022-11-06T16:30:25.863Z,15.57
2022-11-06T16:32:57.291Z,16.00
2022-11-06T16:35:37.028Z,16.60
2022-11-06T16:38:42.598Z,17.77
2022-11-06T16:41:38.494Z,16.02
2022-11-06T16:44:38.679Z,18.42
2022-11-06T16:47:12.725Z,16.70
2022-11-06T16:49:50.384Z,15.93
2022-11-06T16:52:47.942Z,16.08
2022-11-06T16:57:57.861Z,15.02
2022-11-06T17:00:33.545Z,17.02
2022-11-06T17:06:00.806Z,17.60
2022-11-06T17:08:42.932Z,17.00
2022-11-06T17:11:23.178Z,18.67
2022-11-06T17:13:54.507Z,16.80
2022-11-06T17:16:48.247Z,15.25
2022-11-06T17:19:39.039Z,16.65
2022-11-06T17:22:34.509Z,16.50
2022-11-06T17:25:06.811Z,17.02
2022-11-06T17:27:37.723Z,15.52
2022-11-06T17:30:09.710Z,15.93
2022-11-06T17:32:40.555Z,16.27
2022-11-06T17:35:11.925Z,16.73
2022-11-06T17:37:42.741Z,14.35
2022-11-06T17:40:15.287Z,14.43
2022-11-06T17:42:46.302Z,15.50
2022-11-06T17:45:17.470Z,15.63
2022-11-06T17:47:48.589Z,17.55
2022-11-06T17:50:19.613Z,17.00
2022-11-06T17:55:39.052Z,15.55
2022-11-06T17:58:09.889Z,13.30
2022-11-06T18:00:40.820Z,16.75
2022-11-06T18:03:21.833Z,16.52
2022-11-06T18:05:53.687Z,17.00
2022-11-06T18:08:25.913Z,14.82
2022-11-06T18:11:05.576Z,17.10
2022-11-06T18:13:37.944Z,15.00
2022-11-06T18:16:19.509Z,15.50
2022-11-06T18:18:50.624Z,15.70
2022-11-06T18:21:21.733Z,14.45
2022-11-06T18:23:53.259Z,15.00
2022-11-06T18:26:24.448Z,15.25
2022-11-06T18:28:55.309Z,15.75
2022-11-06T18:31:26.353Z,15.63
2022-11-06T18:33:58.555Z,14.65
2022-11-06T18:36:29.426Z,15.43
2022-11-06T18:39:00.523Z,14.45
2022-11-06T18:41:31.458Z,14.95
2022-11-06T18:44:02.989Z,16.27
2022-11-06T18:46:34.342Z,14.88
2022-11-06T18:49:05.675Z,14.82
2022-11-06T18:51:36.782Z,16.63
2022-11-06T18:54:10.425Z,16.60
2022-11-06T18:56:41.588Z,15.20
2022-11-06T18:59:18.037Z,15.77
2022-11-06T19:02:11.783Z,14.27
2022-11-06T19:04:43.076Z,16.92
2022-11-06T19:09:57.889Z,15.60
2022-11-06T19:12:28.815Z,15.27
2022-11-06T19:15:00.611Z,15.18
2022-11-06T19:17:31.631Z,14.98
2022-11-06T19:22:46.317Z,15.32
2022-11-06T19:25:17.529Z,17.67
2022-11-06T19:27:49.321Z,14.23
2022-11-06T19:30:20.288Z,14.55
2022-11-06T19:32:51.283Z,16.27
2022-11-06T19:35:22.158Z,14.68
2022-11-06T19:37:53.425Z,15.35
2022-11-06T19:40:25.405Z,13.50
2022-11-06T19:42:57.125Z,16.25
2022-11-06T19:45:28.708Z,14.43
2022-11-06T19:48:19.293Z,15.77
2022-11-06T19:50:59.544Z,15.32
2022-11-06T19:53:32.757Z,14.68
2022-11-06T19:56:06.816Z,14.55
2022-11-06T19:58:38.504Z,14.23
2022-11-06T20:01:16.944Z,15.85
2022-11-06T20:03:48.578Z,16.08
2022-11-06T20:06:40.328Z,15.10
2022-11-06T20:09:11.574Z,15.98
2022-11-06T20:11:42.487Z,13.93
2022-11-06T20:14:13.570Z,15.07
2022-11-06T20:16:44.396Z,14.23
2022-11-06T20:19:15.242Z,13.93
2022-11-06T20:21:46.412Z,15.98
2022-11-06T20:24:18.853Z,15.25
2022-11-06T20:27:11.539Z,15.10
2022-11-06T20:29:42.651Z,14.18
2022-11-06T20:32:18.616Z,14.65
2022-11-06T20:34:49.956Z,16.00
2022-11-06T20:37:20.788Z,14.48
2022-11-06T20:39:53.341Z,15.23
2022-11-06T20:42:24.197Z,16.23
2022-11-06T20:44:55.231Z,15.52
2022-11-06T20:47:26.400Z,14.35
2022-11-06T20:49:57.444Z,15.98
2022-11-06T20:53:06.684Z,15.35
2022-11-06T20:55:37.796Z,14.57
2022-11-06T20:58:08.650Z,14.55
2022-11-06T21:00:39.493Z,14.38
2022-11-06T21:03:10.618Z,15.55
2022-11-06T21:05:41.726Z,16.38
2022-11-06T21:08:12.923Z,16.50
2022-11-06T21:10:43.983Z,13.77
2022-11-06T21:13:15.331Z,14.25
2022-11-06T21:16:07.460Z,13.93
2022-11-06T21:18:40.064Z,14.57
2022-11-06T21:21:16.812Z,15.50
2022-11-06T21:24:13.499Z,14.38
2022-11-06T21:26:44.781Z,15.52
2022-11-06T21:29:15.762Z,15.48
2022-11-06T21:31:49.151Z,15.38
2022-11-06T21:34:21.484Z,14.75
2022-11-06T21:36:52.414Z,15.35
2022-11-06T21:39:23.552Z,13.68
2022-11-06T21:41:54.454Z,14.35
2022-11-06T21:44:25.321Z,14.23
2022-11-06T21:46:56.281Z,15.15
2022-11-06T21:49:27.095Z,15.57
2022-11-06T21:52:17.907Z,13.70
2022-11-06T21:55:06.557Z,13.57
2022-11-06T21:57:37.584Z,16.15
2022-11-06T22:00:11.812Z,16.42
2022-11-06T22:02:45.625Z,13.82
2022-11-06T22:05:36.532Z,15.65
2022-11-06T22:08:07.810Z,16.13
2022-11-06T22:10:39.120Z,13.80
2022-11-06T22:13:11.527Z,14.02
2022-11-06T22:15:42.544Z,13.63
2022-11-06T22:18:13.589Z,14.95
2022-11-06T22:20:44.698Z,14.70
2022-11-06T22:23:35.449Z,14.25
2022-11-06T22:26:08.151Z,15.63
2022-11-06T22:28:39.105Z,14.63
2022-11-06T22:31:10.373Z,14.15
2022-11-06T22:33:41.283Z,14.07
2022-11-06T22:36:33.507Z,15.05
2022-11-06T22:39:08.217Z,12.45
2022-11-06T22:41:39.759Z,13.48
2022-11-06T22:44:11.287Z,13.63
2022-11-06T22:46:42.735Z,14.93
2022-11-06T22:49:33.551Z,14.57
2022-11-06T22:52:04.621Z,13.88
2022-11-06T22:54:35.533Z,15.02
2022-11-06T22:57:06.641Z,15.23
2022-11-06T22:59:37.851Z,15.43
2022-11-06T23:02:08.959Z,13.85
2022-11-06T23:04:40.274Z,14.65
2022-11-06T23:07:11.359Z,14.52
2022-11-06T23:09:42.556Z,14.55
2022-11-06T23:12:15.051Z,16.00
2022-11-06T23:14:45.952Z,14.32
2022-11-06T23:17:21.994Z,14.68
2022-11-06T23:20:12.926Z,15.35
2022-11-06T23:22:43.993Z,13.65
2022-11-06T23:25:15.843Z,13.85
2022-11-06T23:27:49.905Z,13.93
2022-11-06T23:30:21.432Z,13.77
2022-11-06T23:32:52.267Z,14.82
2022-11-06T23:35:25.898Z,16.60
2022-11-06T23:38:19.764Z,15.05
2022-11-06T23:40:50.745Z,19.13
2022-11-06T23:43:21.698Z,17.80
2022-11-06T23:45:52.811Z,19.35
2022-11-06T23:48:23.645Z,18.98
2022-11-06T23:50:54.688Z,18.02
2022-11-06T23:53:25.578Z,16.55
2022-11-06T23:55:56.431Z,18.23
2022-11-06T23:58:27.407Z,17.40
